Sayabec, Canada
Current Conditions -  °F | °C
As of 12:00 PM on Friday 24 Oct 2014 (Local Time) from CYYY Reporting Station
Broken Clouds Broken Clouds  
Wind Chill: 37°   Ceiling: 8000
Heat Index: 45°   Visibility: 30mi
Dew Point: 36°   Wind: 18mph
Humidity: 71%   Direction: 50°NE
Pressure: 29.9"   Gusts: 24mph
Location:  48.55°N, 67.68°W
Report Text: CYYY 241600Z 05016G21KT 30SM FEW020 BKN080 07/02 A2990 RMK SC1AC6 SLP128
Loading
Personal Weather Stations






























Interactive Weather Map
Tropical Storm Tracking
New forecast layout! Learn more

10-Day Weather Forecast

Advertisements
Track Severe Weather on mobile